createdAt,value
2018-06-17T00:02:33.770Z,23.7
2018-06-17T00:07:32.200Z,23.7
2018-06-17T00:12:30.644Z,23.7
2018-06-17T00:17:29.001Z,23.6
2018-06-17T00:22:27.362Z,23.4
2018-06-17T00:27:25.852Z,23.6
2018-06-17T00:32:23.867Z,23.4
2018-06-17T00:37:22.141Z,23.5
2018-06-17T00:42:20.536Z,23.5
2018-06-17T00:47:18.643Z,23.4
2018-06-17T00:52:17.080Z,23.4
2018-06-17T00:57:15.497Z,23.3
2018-06-17T01:02:13.848Z,23.3
2018-06-17T01:07:12.209Z,23.2
2018-06-17T01:12:10.456Z,23.2
2018-06-17T01:17:08.762Z,23.2
2018-06-17T01:22:06.913Z,23.1
2018-06-17T01:27:05.121Z,23.1
2018-06-17T01:32:03.437Z,23.1
2018-06-17T01:37:01.913Z,23
2018-06-17T01:42:00.394Z,23
2018-06-17T01:46:58.728Z,23
2018-06-17T01:51:57.264Z,23
2018-06-17T01:56:55.525Z,23
2018-06-17T02:01:53.722Z,22.9
2018-06-17T02:06:51.922Z,22.9
2018-06-17T02:11:50.374Z,22.9
2018-06-17T02:16:48.814Z,22.9
2018-06-17T02:21:47.294Z,22.8
2018-06-17T02:26:45.709Z,22.8
2018-06-17T02:31:43.713Z,22.8
2018-06-17T02:36:42.145Z,22.8
2018-06-17T02:41:40.593Z,22.8
2018-06-17T02:46:39.028Z,22.7
2018-06-17T02:51:37.530Z,22.7
2018-06-17T02:56:35.888Z,22.7
2018-06-17T03:01:34.287Z,22.6
2018-06-17T03:06:32.669Z,22.6
2018-06-17T03:11:31.167Z,22.5
2018-06-17T03:16:29.618Z,22.5
2018-06-17T03:21:28.160Z,22.5
2018-06-17T03:26:26.469Z,22.5
2018-06-17T03:31:24.895Z,22.5
2018-06-17T03:36:23.351Z,22.5
2018-06-17T03:41:21.809Z,22.3
2018-06-17T03:46:20.230Z,22.5
2018-06-17T03:51:18.602Z,22.4
2018-06-17T03:56:17.105Z,22.4
2018-06-17T04:01:15.737Z,22.4
2018-06-17T04:06:14.161Z,22.4
2018-06-17T04:11:12.293Z,22.4
2018-06-17T04:16:10.637Z,22.3
2018-06-17T04:21:08.961Z,22.4
2018-06-17T04:26:07.822Z,22.3
2018-06-17T04:31:06.330Z,22.5
2018-06-17T04:36:04.508Z,22.5
2018-06-17T04:41:03.295Z,22.5
2018-06-17T04:46:01.692Z,22.5
2018-06-17T04:50:59.930Z,22.5
2018-06-17T04:55:58.433Z,22.5
2018-06-17T05:00:57.063Z,22.3
2018-06-17T05:05:55.460Z,22.4
2018-06-17T05:10:53.957Z,22.5
2018-06-17T05:15:52.274Z,22.5
2018-06-17T05:20:50.645Z,22.5
2018-06-17T05:25:48.658Z,22.5
2018-06-17T05:30:47.343Z,22.5
2018-06-17T05:35:45.930Z,22.6
2018-06-17T05:40:44.558Z,22.6
2018-06-17T05:45:42.769Z,22.6
2018-06-17T05:50:41.528Z,22.5
2018-06-17T05:55:40.704Z,22.7
2018-06-17T06:00:39.585Z,22.7
2018-06-17T06:05:38.293Z,22.8
2018-06-17T06:10:37.148Z,22.7
2018-06-17T06:15:35.906Z,22.9
2018-06-17T06:20:34.733Z,23
2018-06-17T06:25:34.040Z,23
2018-06-17T06:30:33.090Z,23.3
2018-06-17T06:35:31.697Z,23.4
2018-06-17T06:40:30.739Z,23.5
2018-06-17T06:45:29.544Z,23.6
2018-06-17T06:50:28.508Z,23.7
2018-06-17T06:55:27.314Z,23.8
2018-06-17T07:00:26.701Z,23.9
2018-06-17T07:05:26.101Z,24
2018-06-17T07:10:25.099Z,24.1
2018-06-17T07:15:26.291Z,24.1
2018-06-17T07:20:25.125Z,24.1
2018-06-17T07:25:23.133Z,24.2
2018-06-17T07:30:21.636Z,24.2
2018-06-17T07:35:20.389Z,24
2018-06-17T07:40:18.904Z,24.2
2018-06-17T07:45:18.020Z,24.2
2018-06-17T07:50:16.792Z,24.1
2018-06-17T07:55:15.299Z,24
2018-06-17T08:00:13.730Z,24.2
2018-06-17T08:05:12.224Z,24.2
2018-06-17T08:10:10.770Z,24.1
2018-06-17T08:15:09.381Z,24.2
2018-06-17T08:20:08.374Z,24
2018-06-17T08:25:07.069Z,24.2
2018-06-17T08:30:05.822Z,24.2
2018-06-17T08:35:04.301Z,24.2
2018-06-17T08:40:02.649Z,24.2
2018-06-17T08:45:01.067Z,24.3
2018-06-17T08:49:59.636Z,24.2
2018-06-17T08:54:58.020Z,24.4
2018-06-17T08:59:56.595Z,24.4
2018-06-17T09:04:55.033Z,24.4
2018-06-17T09:09:53.192Z,24.5
2018-06-17T09:14:51.755Z,24.5
2018-06-17T09:19:50.560Z,24.6
2018-06-17T09:24:48.763Z,24.5
2018-06-17T09:29:47.258Z,24.6
2018-06-17T09:34:45.891Z,24.7
2018-06-17T09:39:44.170Z,24.7
2018-06-17T09:44:42.750Z,24.7
2018-06-17T09:49:41.373Z,24.7
2018-06-17T09:54:40.045Z,24.8
2018-06-17T09:59:38.558Z,24.9
2018-06-17T10:04:37.220Z,24.7
2018-06-17T10:09:35.977Z,25
2018-06-17T10:14:34.540Z,25
2018-06-17T10:19:33.152Z,25.1
2018-06-17T10:24:32.128Z,25
2018-06-17T10:29:30.722Z,25.4
2018-06-17T10:34:29.868Z,25.5
2018-06-17T10:39:28.762Z,25.5
2018-06-17T10:44:27.566Z,25.6
2018-06-17T10:49:26.208Z,25.6
2018-06-17T10:54:24.717Z,25.6
2018-06-17T10:59:23.248Z,25.6
2018-06-17T11:04:21.805Z,25.6
2018-06-17T11:09:20.520Z,25.3
2018-06-17T11:14:19.013Z,25.5
2018-06-17T11:19:17.532Z,25.5
2018-06-17T11:24:16.231Z,25.5
2018-06-17T11:29:14.802Z,25.4
2018-06-17T11:34:13.257Z,25.2
2018-06-17T11:39:11.582Z,25.4
2018-06-17T11:44:10.310Z,25.3
2018-06-17T11:49:08.930Z,25.3
2018-06-17T11:54:07.073Z,25.3
2018-06-17T11:59:05.777Z,25.3
2018-06-17T12:04:03.898Z,25.3
2018-06-17T12:09:02.106Z,25.3
2018-06-17T12:14:00.462Z,25.3
2018-06-17T12:18:59.149Z,25.3
2018-06-17T12:39:03.131Z,25.3
2018-06-17T12:44:01.632Z,25.3
2018-06-17T12:49:00.236Z,25.3
2018-06-17T12:53:58.833Z,25.3
2018-06-17T12:58:58.297Z,25.3
2018-06-17T13:09:02.079Z,25.4
2018-06-17T13:14:00.947Z,25.4
2018-06-17T13:18:59.514Z,25.3
2018-06-17T13:23:58.068Z,25.3
2018-06-17T13:28:56.508Z,25.3
2018-06-17T13:33:55.133Z,25.3
2018-06-17T13:43:57.537Z,25.3
2018-06-17T19:35:53.348Z,24.1
2018-06-17T19:40:52.122Z,24.3
2018-06-17T19:45:50.957Z,24.3
2018-06-17T19:50:49.532Z,24.3
2018-06-17T19:55:48.209Z,24.2
2018-06-17T20:00:46.659Z,24.2
2018-06-17T20:05:45.299Z,24.2
2018-06-17T20:10:43.841Z,24.2
2018-06-17T20:15:42.199Z,24.1
2018-06-17T20:20:41.016Z,24.1
2018-06-17T20:25:39.374Z,24.1
2018-06-17T20:30:38.010Z,24.1
2018-06-17T20:35:36.529Z,24
2018-06-17T20:40:34.994Z,24
2018-06-17T20:45:33.448Z,24
2018-06-17T20:50:32.029Z,24
2018-06-17T20:55:30.467Z,23.9
2018-06-17T21:00:28.776Z,23.9
2018-06-17T21:05:27.310Z,23.9
2018-06-17T21:10:25.835Z,23.8
2018-06-17T21:15:24.165Z,23.8
2018-06-17T21:20:22.672Z,23.8
2018-06-17T21:25:21.127Z,23.7
2018-06-17T21:30:19.712Z,23.7
2018-06-17T21:35:18.007Z,23.7
2018-06-17T21:40:16.373Z,23.6
2018-06-17T21:45:14.919Z,23.6
2018-06-17T21:50:13.217Z,23.6
2018-06-17T21:55:11.490Z,23.5
2018-06-17T22:00:09.511Z,23.5
2018-06-17T22:05:08.115Z,23.5
2018-06-17T22:10:06.600Z,23.4
2018-06-17T22:15:05.051Z,23.4
2018-06-17T22:20:03.583Z,23.3
2018-06-17T22:25:01.941Z,23.4
2018-06-17T22:30:00.327Z,23.3
2018-06-17T22:34:58.839Z,23.1
2018-06-17T22:39:57.305Z,23.3
2018-06-17T22:44:55.689Z,23.2
2018-06-17T22:49:53.838Z,23.2
2018-06-17T22:54:52.241Z,23.1
2018-06-17T22:59:50.779Z,23.1
2018-06-17T23:04:49.336Z,23
2018-06-17T23:09:47.757Z,23
2018-06-17T23:14:46.033Z,23
2018-06-17T23:19:44.333Z,23
2018-06-17T23:24:42.971Z,22.9
2018-06-17T23:29:41.283Z,22.9
2018-06-17T23:34:39.536Z,22.9
2018-06-17T23:39:38.124Z,22.7
2018-06-17T23:44:36.403Z,22.8
2018-06-17T23:49:34.745Z,22.8
2018-06-17T23:54:33.260Z,22.6
2018-06-17T23:59:31.530Z,22.7
